createdAt,value
2022-08-23T00:00:27.287Z,47.88
2022-08-23T00:01:27.384Z,41.63
2022-08-23T00:02:27.412Z,45.75
2022-08-23T00:03:27.299Z,41.55
2022-08-23T00:04:28.449Z,41.55
2022-08-23T00:05:28.265Z,48.45
2022-08-23T00:06:27.805Z,47.81
2022-08-23T00:07:27.266Z,41.53
2022-08-23T00:08:27.228Z,46.98
2022-08-23T00:09:27.274Z,51.09
2022-08-23T00:10:27.233Z,43.11
2022-08-23T00:11:27.253Z,47.65
2022-08-23T00:12:27.208Z,42.44
2022-08-23T00:13:47.300Z,52.92
2022-08-23T00:14:28.201Z,58.73
2022-08-23T00:15:27.196Z,42.91
2022-08-23T00:16:27.185Z,41.86
2022-08-23T00:17:34.181Z,52.73
2022-08-23T00:18:28.154Z,48.11
2022-08-23T00:19:27.182Z,47.60
2022-08-23T00:20:27.180Z,42.09
2022-08-23T00:21:27.118Z,49.36
2022-08-23T00:22:27.094Z,42.73
2022-08-23T00:23:27.192Z,42.61
2022-08-23T00:24:27.120Z,53.42
2022-08-23T00:26:02.309Z,46.57
2022-08-23T00:26:27.061Z,43.06
2022-08-23T00:27:27.050Z,47.35
2022-08-23T00:28:27.035Z,49.83
2022-08-23T00:29:27.027Z,43.41
2022-08-23T00:30:27.012Z,46.64
2022-08-23T00:31:28.736Z,42.49
2022-08-23T00:32:27.022Z,47.33
2022-08-23T00:33:27.109Z,43.61
2022-08-23T00:34:26.998Z,46.46
2022-08-23T00:35:27.516Z,51.89
2022-08-23T00:36:27.025Z,50.37
2022-08-23T00:37:27.059Z,48.59
2022-08-23T00:38:33.849Z,45.69
2022-08-23T00:39:28.025Z,42.54
2022-08-23T00:40:26.996Z,42.38
2022-08-23T00:41:26.966Z,45.28
2022-08-23T00:42:26.953Z,51.43
2022-08-23T00:43:26.950Z,47.48
2022-08-23T00:44:26.937Z,54.03
2022-08-23T00:45:29.447Z,50.43
2022-08-23T00:46:27.777Z,43.52
2022-08-23T00:47:27.921Z,49.05
2022-08-23T00:48:26.907Z,52.74
2022-08-23T00:49:27.106Z,47.10
2022-08-23T00:50:26.879Z,43.67
2022-08-23T00:51:27.428Z,43.39
2022-08-23T00:52:26.902Z,50.28
2022-08-23T00:53:26.895Z,51.67
2022-08-23T00:54:26.838Z,54.67
2022-08-23T00:55:26.856Z,45.96
2022-08-23T00:56:26.834Z,57.03
2022-08-23T00:57:26.851Z,48.07
2022-08-23T00:58:26.842Z,54.55
2022-08-23T00:59:27.893Z,57.02
2022-08-23T01:00:26.811Z,58.46
2022-08-23T01:01:26.837Z,44.65
2022-08-23T01:02:26.819Z,47.69
2022-08-23T01:03:26.793Z,51.55
2022-08-23T01:04:26.786Z,51.60
2022-08-23T01:05:26.772Z,43.27
2022-08-23T01:06:26.760Z,42.58
2022-08-23T01:07:26.763Z,42.72
2022-08-23T01:08:26.742Z,48.03
2022-08-23T01:09:26.727Z,43.73
2022-08-23T01:10:27.754Z,45.24
2022-08-23T01:11:26.740Z,45.23
2022-08-23T01:12:32.496Z,47.55
2022-08-23T01:13:28.702Z,49.96
2022-08-23T01:14:26.697Z,43.57
2022-08-23T01:15:26.721Z,46.46
2022-08-23T01:16:26.657Z,43.37
2022-08-23T01:17:26.657Z,53.58
2022-08-23T01:18:26.667Z,48.59
2022-08-23T01:19:26.670Z,47.73
2022-08-23T01:20:27.084Z,42.50
2022-08-23T01:21:26.640Z,42.31
2022-08-23T01:22:26.649Z,42.26
2022-08-23T01:23:26.629Z,42.30
2022-08-23T01:25:06.116Z,42.72
2022-08-23T01:25:27.611Z,57.86
2022-08-23T01:26:26.613Z,44.87
2022-08-23T01:27:26.621Z,48.31
2022-08-23T01:28:26.582Z,43.10
2022-08-23T01:29:26.614Z,42.96
2022-08-23T01:30:26.663Z,55.37
2022-08-23T01:31:26.548Z,43.75
2022-08-23T01:32:26.603Z,49.12
2022-08-23T01:33:26.628Z,43.49
2022-08-23T01:34:26.636Z,43.78
2022-08-23T01:36:27.522Z,43.65
2022-08-23T01:37:26.523Z,42.95
2022-08-23T01:38:30.328Z,44.47
2022-08-23T01:39:27.504Z,60.88
2022-08-23T01:40:26.649Z,44.83
2022-08-23T01:41:26.477Z,51.34
2022-08-23T01:42:26.475Z,48.56
2022-08-23T01:43:26.538Z,44.31
2022-08-23T01:44:27.005Z,52.49
2022-08-23T02:03:42.020Z,43.02
2022-08-23T02:04:42.010Z,49.29
2022-08-23T02:05:42.097Z,48.68
2022-08-23T02:06:41.990Z,43.60
2022-08-23T02:07:43.190Z,43.02
2022-08-23T02:08:43.209Z,42.87
2022-08-23T02:09:46.690Z,42.95
2022-08-23T02:10:43.139Z,43.83
2022-08-23T02:11:43.159Z,43.36
2022-08-23T02:12:43.138Z,48.15
2022-08-23T02:13:43.123Z,56.17
2022-08-23T02:14:43.114Z,49.24
2022-08-23T02:15:43.151Z,52.10
2022-08-23T02:16:43.133Z,53.66
2022-08-23T02:17:44.122Z,57.63
2022-08-23T02:18:43.097Z,49.67
2022-08-23T02:19:43.199Z,48.22
2022-08-23T02:20:43.056Z,49.19
2022-08-23T02:21:44.710Z,49.14
2022-08-23T02:22:43.058Z,53.66
2022-08-23T02:23:43.025Z,43.76
2022-08-23T02:24:43.082Z,52.68
2022-08-23T02:25:43.031Z,49.02
2022-08-23T02:26:46.320Z,44.27
2022-08-23T02:27:44.167Z,49.04
2022-08-23T02:28:43.110Z,54.17
2022-08-23T02:29:44.089Z,53.38
2022-08-23T02:30:43.583Z,54.08
2022-08-23T02:31:42.956Z,50.05
2022-08-23T02:32:42.983Z,52.66
2022-08-23T02:33:42.965Z,44.00
2022-08-23T02:34:42.948Z,47.41
2022-08-23T02:35:43.585Z,49.69
2022-08-23T02:36:42.966Z,53.32
2022-08-23T02:37:43.584Z,49.93
2022-08-23T02:38:42.951Z,43.45
2022-08-23T02:39:42.970Z,51.93
2022-08-23T02:40:42.873Z,57.04
2022-08-23T02:41:42.891Z,53.03
2022-08-23T02:42:42.880Z,44.47
2022-08-23T02:43:42.920Z,49.54
2022-08-23T02:44:42.869Z,49.25
2022-08-23T02:45:42.869Z,55.85
2022-08-23T02:46:43.784Z,56.23
2022-08-23T02:47:43.894Z,53.16
2022-08-23T02:48:42.844Z,52.30
2022-08-23T02:49:42.878Z,50.39
2022-08-23T02:50:42.874Z,56.14
2022-08-23T02:51:42.853Z,45.61
2022-08-23T02:52:42.847Z,55.30
2022-08-23T02:53:42.815Z,51.79
2022-08-23T02:54:42.820Z,56.52
2022-08-23T02:55:43.596Z,56.04
2022-08-23T02:56:42.774Z,49.91
2022-08-23T02:57:42.769Z,54.85
2022-08-23T02:58:42.788Z,51.83
2022-08-23T02:59:42.815Z,53.85
2022-08-23T03:00:42.774Z,49.29
2022-08-23T03:01:42.752Z,44.89
2022-08-23T03:02:42.808Z,54.01
2022-08-23T03:03:42.751Z,45.77
2022-08-23T03:04:42.770Z,55.10
2022-08-23T03:05:42.726Z,53.69
2022-08-23T03:06:42.742Z,54.92
2022-08-23T03:07:42.714Z,47.72
2022-08-23T03:08:42.744Z,61.26
2022-08-23T03:09:42.709Z,57.20
2022-08-23T03:10:42.663Z,60.03
2022-08-23T03:11:42.699Z,54.19
2022-08-23T03:12:42.735Z,49.27
2022-08-23T03:13:42.684Z,44.64
2022-08-23T03:14:42.717Z,50.20
2022-08-23T03:15:42.631Z,53.54
2022-08-23T03:16:42.638Z,59.25
2022-08-23T03:17:42.633Z,44.93
2022-08-23T03:18:42.674Z,53.40
2022-08-23T03:19:42.616Z,59.93
2022-08-23T03:20:42.623Z,56.16
2022-08-23T03:21:43.345Z,57.42
2022-08-23T03:22:54.283Z,54.13
2022-08-23T03:23:43.623Z,51.00
2022-08-23T03:24:42.554Z,51.21
2022-08-23T03:25:42.597Z,60.04
2022-08-23T03:26:42.572Z,55.71
2022-08-23T03:27:44.860Z,54.47
2022-08-23T03:28:42.563Z,50.63
2022-08-23T03:29:42.567Z,64.35
2022-08-23T03:30:42.724Z,58.10
2022-08-23T03:31:42.513Z,53.17
2022-08-23T03:32:49.057Z,61.36
2022-08-23T03:33:43.495Z,51.03
2022-08-23T03:34:42.484Z,61.64
2022-08-23T03:35:42.496Z,63.41
2022-08-23T03:36:42.511Z,64.42
2022-08-23T03:37:42.471Z,62.49
2022-08-23T03:38:42.471Z,60.21
2022-08-23T03:39:42.565Z,59.06
2022-08-23T03:40:42.434Z,60.96
2022-08-23T03:41:42.435Z,62.20
2022-08-23T03:42:42.466Z,61.78
2022-08-23T03:43:42.423Z,58.54
2022-08-23T03:44:42.413Z,58.89
2022-08-23T03:45:42.459Z,64.92
2022-08-23T03:46:43.411Z,62.11
2022-08-23T04:03:12.450Z,64.58
2022-08-23T04:04:13.621Z,68.46
2022-08-23T04:05:13.608Z,64.68
2022-08-23T04:06:13.623Z,55.05
2022-08-23T04:07:13.584Z,60.07
2022-08-23T04:08:13.627Z,64.81
2022-08-23T04:09:13.560Z,60.69
2022-08-23T04:10:13.596Z,66.45
2022-08-23T04:11:13.587Z,67.06
2022-08-23T04:12:17.545Z,62.12
2022-08-23T04:13:13.551Z,52.03
2022-08-23T04:14:13.541Z,64.61
2022-08-23T04:15:13.522Z,65.78
2022-08-23T04:16:13.571Z,60.78
2022-08-23T04:17:13.514Z,58.76
2022-08-23T04:18:13.502Z,66.56
2022-08-23T04:19:13.499Z,57.84
2022-08-23T04:20:13.484Z,66.42
2022-08-23T04:21:13.518Z,63.09
2022-08-23T04:22:13.482Z,68.43
2022-08-23T04:23:13.528Z,61.61
2022-08-23T04:24:14.194Z,62.37
2022-08-23T04:25:29.936Z,67.91
2022-08-23T04:26:14.458Z,61.03
2022-08-23T04:27:13.448Z,66.43
2022-08-23T04:28:13.461Z,63.69
2022-08-23T04:29:14.205Z,65.58
2022-08-23T04:30:14.447Z,60.83
2022-08-23T04:31:13.475Z,65.52
2022-08-23T04:32:13.411Z,62.80
2022-08-23T04:33:17.819Z,63.35
2022-08-23T04:34:14.418Z,67.07
2022-08-23T04:35:14.376Z,64.22
2022-08-23T04:36:13.418Z,60.53
2022-08-23T04:37:13.421Z,63.98
2022-08-23T04:38:18.342Z,65.54
2022-08-23T04:39:14.382Z,68.93
2022-08-23T04:40:13.411Z,67.81
2022-08-23T04:41:13.349Z,69.82
2022-08-23T04:42:15.024Z,68.55
2022-08-23T04:43:14.334Z,67.84
2022-08-23T04:44:13.337Z,68.75
2022-08-23T04:45:13.293Z,69.16
2022-08-23T04:46:13.383Z,67.15
2022-08-23T04:47:16.161Z,70.47
2022-08-23T04:48:18.522Z,67.02
2022-08-23T04:49:13.428Z,66.95
2022-08-23T04:50:13.280Z,68.34
2022-08-23T04:51:13.293Z,66.99
2022-08-23T04:52:17.305Z,66.95
2022-08-23T04:53:15.242Z,62.69
2022-08-23T04:54:13.230Z,62.23
2022-08-23T04:55:14.273Z,63.61
2022-08-23T04:56:13.266Z,65.90
2022-08-23T04:57:13.261Z,66.32
2022-08-23T04:58:13.255Z,66.19
2022-08-23T04:59:13.299Z,64.58
2022-08-23T05:00:13.315Z,59.47
2022-08-23T05:01:13.294Z,63.22
2022-08-23T05:02:13.189Z,66.82
2022-08-23T05:03:13.178Z,63.62
2022-08-23T05:04:13.149Z,68.93
2022-08-23T05:05:13.131Z,66.75
2022-08-23T05:06:13.143Z,67.45
2022-08-23T05:07:13.139Z,67.42
2022-08-23T05:08:13.099Z,65.71
2022-08-23T05:09:17.130Z,65.66
2022-08-23T05:10:14.126Z,62.52
2022-08-23T05:11:13.091Z,66.32
2022-08-23T05:12:13.097Z,67.08
2022-08-23T05:13:13.131Z,67.68
2022-08-23T05:14:13.115Z,65.87
2022-08-23T05:15:13.089Z,67.51
2022-08-23T05:16:13.162Z,61.79
2022-08-23T05:17:13.081Z,69.11
2022-08-23T05:18:13.043Z,74.18
2022-08-23T05:19:13.034Z,66.71
2022-08-23T05:20:13.054Z,67.43
2022-08-23T05:21:13.037Z,64.10
2022-08-23T05:22:13.031Z,69.03
2022-08-23T05:23:13.032Z,65.48
2022-08-23T05:24:13.615Z,67.75
2022-08-23T05:25:12.984Z,67.99
2022-08-23T05:26:13.526Z,65.06
2022-08-23T05:27:13.753Z,68.59
2022-08-23T05:28:13.985Z,63.37
2022-08-23T05:29:12.996Z,71.34
2022-08-23T05:30:15.214Z,66.58
2022-08-23T05:31:13.051Z,62.85
2022-08-23T05:32:12.957Z,68.63
2022-08-23T05:33:12.934Z,63.45
2022-08-23T05:34:12.939Z,67.13
2022-08-23T05:35:12.953Z,68.86
2022-08-23T05:36:12.957Z,66.39
2022-08-23T05:37:12.984Z,68.79
2022-08-23T05:38:12.928Z,67.62
2022-08-23T05:39:12.985Z,62.05
2022-08-23T05:40:12.991Z,67.82
2022-08-23T05:41:12.896Z,65.10
2022-08-23T05:42:12.873Z,63.73
2022-08-23T05:43:12.898Z,65.61
2022-08-23T05:44:12.871Z,68.54
2022-08-23T05:45:12.867Z,65.27
2022-08-23T05:46:13.254Z,60.80
2022-08-23T05:47:12.830Z,71.10
2022-08-23T05:48:12.825Z,65.75
2022-08-23T05:49:12.885Z,61.31
2022-08-23T05:50:13.851Z,67.09
2022-08-23T05:51:12.841Z,62.39
2022-08-23T05:52:12.798Z,63.80
2022-08-23T05:53:12.777Z,65.15
2022-08-23T05:54:12.820Z,68.51
2022-08-23T05:55:12.788Z,66.48
2022-08-23T05:56:12.791Z,69.61
2022-08-23T05:57:12.753Z,70.55
2022-08-23T05:58:12.773Z,64.18
2022-08-23T05:59:12.850Z,69.62
2022-08-23T06:00:12.832Z,65.68
2022-08-23T06:01:12.767Z,70.21
2022-08-23T06:02:12.756Z,63.21
2022-08-23T06:03:12.750Z,63.29
2022-08-23T06:04:12.700Z,63.67
2022-08-23T06:05:12.717Z,67.80
2022-08-23T06:06:12.721Z,63.85
2022-08-23T06:07:12.667Z,64.26
2022-08-23T06:08:12.752Z,66.78
2022-08-23T06:09:12.707Z,64.95
2022-08-23T06:10:16.210Z,66.83
2022-08-23T06:11:12.656Z,61.41
2022-08-23T06:12:12.626Z,66.13
2022-08-23T06:13:12.677Z,61.32
2022-08-23T06:14:12.701Z,68.71
2022-08-23T06:15:12.647Z,66.08
2022-08-23T06:16:15.031Z,67.65
2022-08-23T06:17:12.603Z,65.79
2022-08-23T06:18:12.641Z,58.38
2022-08-23T06:19:12.598Z,69.27
2022-08-23T06:20:12.695Z,68.25
2022-08-23T06:21:12.631Z,67.04
2022-08-23T06:22:12.582Z,64.20
2022-08-23T06:23:12.598Z,69.62
2022-08-23T06:24:12.589Z,60.49
2022-08-23T06:25:12.539Z,60.00
2022-08-23T06:26:12.528Z,68.45
2022-08-23T06:27:12.589Z,62.49
2022-08-23T06:28:12.529Z,67.43
2022-08-23T06:29:12.560Z,64.96
2022-08-23T06:30:13.339Z,55.97
2022-08-23T06:31:12.554Z,71.25
2022-08-23T06:32:12.542Z,69.12
2022-08-23T06:33:12.536Z,57.78
2022-08-23T06:34:12.577Z,63.46
2022-08-23T06:35:38.471Z,69.37
2022-08-23T06:36:13.495Z,66.47
2022-08-23T06:37:12.492Z,61.33
2022-08-23T06:38:12.447Z,62.38
2022-08-23T06:39:12.439Z,61.65
2022-08-23T06:40:12.518Z,66.57
2022-08-23T06:41:12.420Z,63.66
2022-08-23T06:42:36.569Z,67.20
2022-08-23T06:43:14.420Z,68.05
2022-08-23T06:44:12.394Z,62.59
2022-08-23T06:45:12.421Z,63.46
2022-08-23T06:46:12.499Z,62.40
2022-08-23T06:47:12.401Z,65.68
2022-08-23T06:48:14.886Z,65.50
2022-08-23T06:49:13.427Z,67.30
2022-08-23T06:50:12.412Z,65.76
2022-08-23T06:51:12.366Z,61.68
2022-08-23T06:52:12.319Z,65.45
2022-08-23T06:53:12.348Z,61.92
2022-08-23T06:54:12.322Z,63.54
2022-08-23T06:55:13.926Z,65.46
2022-08-23T06:56:13.331Z,58.35
2022-08-23T06:57:12.301Z,65.19
2022-08-23T06:58:13.141Z,61.18
2022-08-23T06:59:12.283Z,64.80
2022-08-23T07:00:13.246Z,61.17
2022-08-23T07:01:28.885Z,64.61
2022-08-23T07:02:14.393Z,69.58
2022-08-23T07:03:12.348Z,63.23
2022-08-23T07:04:12.234Z,66.01
2022-08-23T07:05:12.271Z,64.29
2022-08-23T07:06:12.254Z,67.21
2022-08-23T07:07:12.524Z,61.21
2022-08-23T07:08:12.251Z,63.99
2022-08-23T07:09:12.233Z,63.88
2022-08-23T07:10:12.261Z,67.32
2022-08-23T07:11:12.216Z,65.38
2022-08-23T07:12:12.229Z,69.95
2022-08-23T07:13:14.886Z,63.32
2022-08-23T07:14:12.178Z,59.67
2022-08-23T07:15:12.231Z,63.61
2022-08-23T07:16:12.235Z,64.13
2022-08-23T07:17:12.190Z,59.09
2022-08-23T07:18:13.632Z,65.90
2022-08-23T07:19:12.195Z,62.69
2022-08-23T07:20:12.156Z,66.40
2022-08-23T07:21:12.180Z,61.24
2022-08-23T07:22:12.170Z,63.60
2022-08-23T07:23:12.184Z,64.11
2022-08-23T07:24:12.166Z,65.34
2022-08-23T07:25:12.195Z,61.66
2022-08-23T07:26:12.207Z,66.24
2022-08-23T07:27:12.849Z,57.58
2022-08-23T07:28:13.092Z,68.58
2022-08-23T07:29:12.123Z,64.96
2022-08-23T07:30:12.219Z,65.37
2022-08-23T07:31:14.699Z,62.62
2022-08-23T07:32:12.239Z,65.60
2022-08-23T07:33:12.182Z,63.36
2022-08-23T07:34:12.079Z,68.06
2022-08-23T07:35:12.581Z,63.20
2022-08-23T07:36:12.050Z,64.25
2022-08-23T07:37:15.643Z,65.42
2022-08-23T07:38:12.048Z,60.52
2022-08-23T07:39:12.045Z,62.69
2022-08-23T07:40:15.874Z,69.71
2022-08-23T07:41:13.128Z,67.33
2022-08-23T07:42:22.963Z,63.48
2022-08-23T07:43:13.049Z,62.79
2022-08-23T07:44:11.969Z,63.35
2022-08-23T07:45:12.923Z,65.46
2022-08-23T07:46:13.033Z,63.22
2022-08-23T07:47:12.011Z,66.98
2022-08-23T07:48:11.981Z,62.92
2022-08-23T07:49:11.969Z,67.36
2022-08-23T07:50:12.060Z,68.66
2022-08-23T07:51:12.029Z,65.30
2022-08-23T07:52:12.159Z,61.43
2022-08-23T07:53:12.963Z,61.52
2022-08-23T07:54:11.931Z,67.03
2022-08-23T07:55:11.953Z,65.11
2022-08-23T07:56:11.917Z,62.79
2022-08-23T07:57:11.906Z,62.90
2022-08-23T07:58:12.692Z,59.59
2022-08-23T07:59:11.882Z,63.84
2022-08-23T08:00:11.951Z,67.43
2022-08-23T08:01:11.939Z,66.24
2022-08-23T08:02:12.106Z,63.88
2022-08-23T08:03:11.888Z,59.50
2022-08-23T08:04:12.539Z,61.26
2022-08-23T08:05:11.873Z,65.02
2022-08-23T08:06:11.855Z,62.70
2022-08-23T08:07:19.428Z,67.03
2022-08-23T08:08:13.819Z,62.26
2022-08-23T08:09:11.851Z,61.66
2022-08-23T08:10:11.846Z,62.06
2022-08-23T08:11:11.819Z,62.55
2022-08-23T08:12:11.832Z,65.52
2022-08-23T08:13:11.782Z,62.22
2022-08-23T08:14:12.316Z,66.61
2022-08-23T08:15:11.822Z,62.20
2022-08-23T08:16:11.819Z,63.65
2022-08-23T08:17:12.763Z,63.76
2022-08-23T08:18:11.783Z,61.35
2022-08-23T08:19:11.760Z,65.07
2022-08-23T08:20:11.794Z,64.18
2022-08-23T08:21:11.743Z,64.71
2022-08-23T08:22:11.777Z,67.78
2022-08-23T08:23:11.743Z,65.17
2022-08-23T08:24:11.708Z,65.97
2022-08-23T08:25:11.719Z,60.45
2022-08-23T08:26:11.703Z,64.87
2022-08-23T08:27:11.695Z,64.73
2022-08-23T08:28:15.927Z,64.33
2022-08-23T08:29:12.694Z,66.77
2022-08-23T08:30:11.821Z,58.72
2022-08-23T08:31:13.182Z,64.08
2022-08-23T08:32:13.949Z,61.03
2022-08-23T08:33:11.676Z,65.03
2022-08-23T08:34:11.642Z,65.95
2022-08-23T08:35:11.708Z,64.49
2022-08-23T08:36:11.649Z,62.38
2022-08-23T08:37:11.632Z,58.65
2022-08-23T08:38:11.655Z,62.51
2022-08-23T08:39:11.633Z,64.04
2022-08-23T08:40:11.646Z,63.83
2022-08-23T08:41:11.630Z,65.07
2022-08-23T08:42:11.623Z,64.58
2022-08-23T08:43:11.624Z,61.74
2022-08-23T08:44:15.802Z,63.87
2022-08-23T08:45:12.627Z,67.10
2022-08-23T08:46:11.590Z,66.02
2022-08-23T08:47:11.569Z,63.28
2022-08-23T08:48:13.670Z,58.50
2022-08-23T08:49:12.564Z,63.37
2022-08-23T08:50:11.549Z,60.18
2022-08-23T08:51:11.520Z,65.12
2022-08-23T08:52:11.579Z,64.91
2022-08-23T08:53:11.501Z,66.00
2022-08-23T08:54:11.532Z,60.86
2022-08-23T08:55:11.548Z,57.58
2022-08-23T08:56:11.508Z,64.69
2022-08-23T08:57:12.518Z,64.85
2022-08-23T08:58:11.489Z,65.78
2022-08-23T08:59:11.460Z,64.40
2022-08-23T09:00:11.504Z,64.21
2022-08-23T09:01:11.464Z,63.05
2022-08-23T09:02:32.580Z,64.05
2022-08-23T09:03:12.571Z,62.76
2022-08-23T09:04:11.487Z,67.89
2022-08-23T09:05:11.451Z,70.11
2022-08-23T09:06:11.457Z,68.79
2022-08-23T09:07:11.432Z,70.12
2022-08-23T09:08:11.425Z,69.49
2022-08-23T09:09:11.448Z,68.68
2022-08-23T09:10:11.480Z,71.53
2022-08-23T09:11:11.439Z,70.67
2022-08-23T09:12:11.422Z,70.18
2022-08-23T09:13:11.464Z,67.59
2022-08-23T09:14:12.832Z,63.45
2022-08-23T09:15:11.364Z,61.35
2022-08-23T09:16:11.386Z,65.50
2022-08-23T09:17:11.388Z,64.19
2022-08-23T09:18:11.377Z,69.94
2022-08-23T09:19:11.399Z,70.97
2022-08-23T09:20:11.363Z,71.05
2022-08-23T09:21:11.341Z,62.73
2022-08-23T09:22:11.378Z,62.52
2022-08-23T09:23:11.307Z,59.38
2022-08-23T09:24:11.380Z,62.83
2022-08-23T09:25:11.317Z,60.05
2022-08-23T09:26:11.331Z,59.81
2022-08-23T09:27:11.339Z,63.00
2022-08-23T09:28:11.281Z,61.49
2022-08-23T09:29:11.311Z,67.43
2022-08-23T09:30:11.300Z,62.42
2022-08-23T09:31:11.327Z,64.89
2022-08-23T09:32:12.299Z,64.86
2022-08-23T09:33:11.248Z,63.83
2022-08-23T09:34:11.248Z,63.87
2022-08-23T09:35:12.293Z,61.14
2022-08-23T09:36:11.272Z,59.76
2022-08-23T09:37:11.237Z,62.84
2022-08-23T09:38:11.384Z,61.25
2022-08-23T09:39:12.231Z,63.56
2022-08-23T09:40:11.332Z,65.52
2022-08-23T09:41:12.242Z,58.35
2022-08-23T09:42:11.240Z,63.67
2022-08-23T09:43:11.194Z,56.73
2022-08-23T09:44:11.188Z,58.27
2022-08-23T09:45:11.175Z,63.66
2022-08-23T09:46:11.263Z,62.75
2022-08-23T09:47:11.183Z,66.66
2022-08-23T09:48:11.236Z,64.64
2022-08-23T09:49:11.146Z,63.16
2022-08-23T09:50:11.171Z,62.76
2022-08-23T09:51:12.167Z,60.40
2022-08-23T09:52:11.161Z,64.53
2022-08-23T09:53:11.175Z,60.92
2022-08-23T09:54:11.813Z,63.69
2022-08-23T09:55:11.130Z,64.63
2022-08-23T09:56:11.106Z,62.67
2022-08-23T09:57:11.158Z,63.59
2022-08-23T09:58:11.159Z,63.82
2022-08-23T09:59:11.103Z,64.11
2022-08-23T10:00:11.068Z,62.73
2022-08-23T10:01:11.127Z,63.99
2022-08-23T10:02:11.132Z,63.08
2022-08-23T10:03:11.066Z,64.09
2022-08-23T10:04:11.109Z,66.26
2022-08-23T10:05:12.085Z,59.36
2022-08-23T10:06:11.070Z,66.04
2022-08-23T10:07:11.081Z,65.11
2022-08-23T10:08:11.132Z,64.41
2022-08-23T10:09:11.048Z,60.93
2022-08-23T10:10:11.016Z,62.26
2022-08-23T10:11:10.998Z,65.61
2022-08-23T10:12:11.015Z,63.11
2022-08-23T10:13:10.989Z,57.60
2022-08-23T10:14:11.360Z,61.79
2022-08-23T10:15:11.011Z,66.69
2022-08-23T10:16:11.113Z,66.83
2022-08-23T10:17:10.969Z,63.96
2022-08-23T10:18:11.678Z,65.59
2022-08-23T10:19:10.984Z,64.41
2022-08-23T10:20:10.998Z,61.81
2022-08-23T10:21:10.938Z,60.28
2022-08-23T10:22:10.971Z,63.60
2022-08-23T10:23:10.971Z,65.21
2022-08-23T10:24:10.915Z,66.12
2022-08-23T10:25:10.963Z,66.26
2022-08-23T10:26:10.942Z,61.38
2022-08-23T10:27:10.901Z,61.79
2022-08-23T10:28:10.931Z,64.71
2022-08-23T10:29:10.937Z,62.21
2022-08-23T10:30:10.954Z,64.11
2022-08-23T10:31:11.017Z,60.36
2022-08-23T10:32:10.909Z,58.00
2022-08-23T10:33:10.911Z,67.24
2022-08-23T10:34:11.852Z,63.09
2022-08-23T10:35:10.849Z,63.61
2022-08-23T10:36:10.869Z,64.03
2022-08-23T10:37:10.911Z,65.27
2022-08-23T10:38:10.820Z,63.26
2022-08-23T10:39:10.816Z,66.19
2022-08-23T10:40:10.850Z,63.16
2022-08-23T10:41:10.838Z,65.41
2022-08-23T10:42:10.893Z,62.42
2022-08-23T10:43:16.273Z,61.84
2022-08-23T10:44:10.945Z,59.08
2022-08-23T10:45:10.813Z,63.28
2022-08-23T10:46:10.870Z,59.17
2022-08-23T10:47:10.804Z,62.36
2022-08-23T10:48:11.653Z,66.82
2022-08-23T10:49:10.753Z,65.47
2022-08-23T10:50:11.316Z,62.12
2022-08-23T10:51:10.737Z,61.94
2022-08-23T10:52:10.733Z,65.44
2022-08-23T10:53:10.971Z,60.79
2022-08-23T10:54:10.765Z,62.23
2022-08-23T10:55:10.750Z,64.16
2022-08-23T10:56:10.709Z,62.10
2022-08-23T10:57:10.712Z,58.95
2022-08-23T10:58:10.720Z,65.93
2022-08-23T10:59:10.912Z,62.26
2022-08-23T11:00:10.671Z,69.97
2022-08-23T11:01:10.715Z,67.69
2022-08-23T11:02:10.686Z,68.69
2022-08-23T11:03:10.680Z,57.10
2022-08-23T11:04:11.305Z,60.31
2022-08-23T11:05:10.659Z,65.20
2022-08-23T11:06:10.646Z,64.53
2022-08-23T11:07:10.653Z,57.93
2022-08-23T11:08:10.657Z,63.08
2022-08-23T11:09:10.630Z,63.49
2022-08-23T11:10:16.354Z,64.90
2022-08-23T11:11:11.634Z,62.88
2022-08-23T11:12:11.022Z,62.65
2022-08-23T11:13:10.611Z,61.41
2022-08-23T11:14:10.615Z,65.87
2022-08-23T11:15:10.570Z,65.50
2022-08-23T11:16:10.614Z,63.33
2022-08-23T11:17:10.658Z,63.19
2022-08-23T11:18:10.587Z,66.31
2022-08-23T11:19:11.383Z,63.55
2022-08-23T11:20:10.631Z,66.57
2022-08-23T11:21:10.551Z,65.74
2022-08-23T11:22:10.521Z,66.26
2022-08-23T11:23:10.558Z,66.17
2022-08-23T11:24:10.563Z,63.50
2022-08-23T11:25:10.526Z,66.06
2022-08-23T11:26:10.515Z,64.80
2022-08-23T11:27:10.543Z,61.47
2022-08-23T11:28:10.501Z,63.76
2022-08-23T11:29:10.483Z,62.49
2022-08-23T11:30:10.548Z,64.58
2022-08-23T11:31:11.826Z,64.17
2022-08-23T11:32:10.466Z,64.48
2022-08-23T11:33:10.476Z,65.30
2022-08-23T11:34:10.493Z,67.71
2022-08-23T11:35:10.476Z,66.39
2022-08-23T11:36:10.476Z,65.10
2022-08-23T11:37:10.506Z,55.95
2022-08-23T11:38:10.522Z,65.24
2022-08-23T11:39:10.464Z,66.02
2022-08-23T11:40:13.618Z,62.81
2022-08-23T11:41:11.408Z,64.58
2022-08-23T11:42:10.452Z,64.33
2022-08-23T11:43:10.450Z,67.73
2022-08-23T11:44:10.390Z,63.18
2022-08-23T11:45:10.385Z,57.17
2022-08-23T11:46:10.443Z,67.95
2022-08-23T11:47:11.338Z,68.45
2022-08-23T11:48:10.405Z,59.12
2022-08-23T11:49:10.345Z,64.93
2022-08-23T11:50:10.819Z,63.86
2022-08-23T11:51:10.359Z,62.19
2022-08-23T11:52:10.651Z,64.41
2022-08-23T11:53:10.337Z,63.53
2022-08-23T11:54:10.350Z,62.03
2022-08-23T11:55:10.456Z,64.88
2022-08-23T11:56:10.325Z,61.56
2022-08-23T11:57:10.296Z,67.08
2022-08-23T11:58:10.272Z,66.54
2022-08-23T11:59:10.267Z,66.63
2022-08-23T12:00:11.327Z,65.21
2022-08-23T12:01:10.244Z,67.15
2022-08-23T12:02:14.194Z,64.86
2022-08-23T12:03:12.453Z,65.42
2022-08-23T12:04:11.610Z,68.53
2022-08-23T12:05:10.303Z,63.42
2022-08-23T12:06:12.589Z,63.36
2022-08-23T12:07:10.232Z,63.30
2022-08-23T12:08:10.490Z,64.19
2022-08-23T12:09:12.197Z,66.35
2022-08-23T12:10:10.307Z,57.36
2022-08-23T12:11:10.230Z,67.27
2022-08-23T12:12:10.214Z,63.71
2022-08-23T12:13:10.211Z,60.87
2022-08-23T12:14:10.317Z,60.91
2022-08-23T12:15:11.981Z,67.14
2022-08-23T12:16:16.369Z,61.90
2022-08-23T12:17:12.203Z,66.18
2022-08-23T12:18:10.166Z,66.28
2022-08-23T12:19:10.180Z,62.68
2022-08-23T12:20:16.421Z,62.29
2022-08-23T12:21:11.152Z,55.26
2022-08-23T12:22:10.172Z,65.20
2022-08-23T12:23:10.132Z,53.04
2022-08-23T12:24:10.287Z,65.01
2022-08-23T12:25:10.111Z,60.60
2022-08-23T12:26:10.138Z,61.52
2022-08-23T12:27:10.126Z,58.71
2022-08-23T12:28:10.121Z,64.92
2022-08-23T12:29:10.071Z,66.66
2022-08-23T12:30:10.171Z,57.00
2022-08-23T12:31:13.503Z,68.19
2022-08-23T12:32:10.112Z,50.29
2022-08-23T12:33:10.131Z,64.06
2022-08-23T12:34:10.096Z,65.65
2022-08-23T12:35:10.056Z,68.75
2022-08-23T12:36:16.434Z,65.17
2022-08-23T12:37:11.017Z,64.41
2022-08-23T12:38:10.063Z,62.94
2022-08-23T12:39:10.070Z,65.61
2022-08-23T12:40:10.062Z,67.38
2022-08-23T12:41:10.025Z,59.59
2022-08-23T12:42:10.021Z,64.58
2022-08-23T12:43:10.035Z,66.54
2022-08-23T12:44:10.966Z,62.02
2022-08-23T12:45:10.016Z,62.63
2022-08-23T12:46:09.998Z,63.87
2022-08-23T12:47:09.961Z,63.57
2022-08-23T12:48:10.402Z,61.98
2022-08-23T12:49:13.522Z,67.32
2022-08-23T12:50:10.985Z,60.35
2022-08-23T12:51:09.973Z,61.08
2022-08-23T12:52:09.962Z,61.04
2022-08-23T12:53:09.909Z,66.35
2022-08-23T12:54:09.960Z,60.10
2022-08-23T12:55:09.917Z,64.32
2022-08-23T12:56:09.893Z,62.30
2022-08-23T12:57:09.922Z,59.16
2022-08-23T12:58:10.000Z,65.98
2022-08-23T12:59:09.946Z,63.74
2022-08-23T13:00:17.462Z,62.02
2022-08-23T13:01:10.899Z,62.42
2022-08-23T13:02:09.969Z,66.34
2022-08-23T13:03:10.930Z,61.88
2022-08-23T13:04:09.876Z,65.50
2022-08-23T13:05:13.358Z,66.32
2022-08-23T13:06:11.141Z,62.99
2022-08-23T13:07:09.816Z,64.79
2022-08-23T13:08:09.871Z,64.89
2022-08-23T13:09:09.870Z,66.73
2022-08-23T13:10:09.821Z,62.54
2022-08-23T13:11:09.818Z,63.75
2022-08-23T13:12:09.814Z,57.94
2022-08-23T13:13:09.827Z,65.06
2022-08-23T13:14:09.813Z,63.16
2022-08-23T13:15:09.853Z,61.37
2022-08-23T13:16:09.808Z,66.53
2022-08-23T13:17:09.828Z,65.18
2022-08-23T13:18:09.778Z,61.42
2022-08-23T13:19:10.856Z,60.34
2022-08-23T13:20:09.767Z,64.12
2022-08-23T13:21:09.792Z,62.86
2022-08-23T13:22:10.882Z,62.05
2022-08-23T13:23:09.794Z,57.16
2022-08-23T13:24:09.715Z,64.82
2022-08-23T13:25:28.583Z,65.06
2022-08-23T13:26:11.815Z,60.57
2022-08-23T13:27:09.726Z,65.92